Time;durP1;ratioP1;P1;durP2;ratioP2;P2;SDS_P1;SDS_P2;PMS_P1;PMS_P2;Temp;Humidity;BMP_temperature;BMP_pressure;BME280_temperature;BME280_humidity;BME280_pressure;Samples;Min_cycle;Max_cycle;Signal;HPM_P1;HPM_P2
2023/08/19 00:00:13;;;;;;;41.10;17.15;;;;;;;30.18;nan;97783.31;4929353;28;20058;-65
2023/08/19 00:02:43;;;;;;;41.33;17.70;;;;;;;30.15;nan;97789.44;4945583;28;20047;-65
2023/08/19 00:05:13;;;;;;;41.67;17.88;;;;;;;30.16;nan;97799.22;4935371;28;20043;-65
2023/08/19 00:07:42;;;;;;;42.38;16.05;;;;;;;30.16;nan;97797.31;4941737;28;20047;-65
2023/08/19 00:10:11;;;;;;;38.28;17.20;;;;;;;30.14;nan;97799.56;4932067;28;20059;-66
2023/08/19 00:12:41;;;;;;;37.85;17.55;;;;;;;30.16;nan;97801.97;4933698;28;20055;-65
2023/08/19 00:15:11;;;;;;;37.05;16.80;;;;;;;30.05;nan;97787.19;4912954;28;20058;-65
2023/08/19 00:17:40;;;;;;;37.28;17.27;;;;;;;30.04;nan;97797.31;4945432;28;20058;-65
2023/08/19 00:20:10;;;;;;;39.63;16.42;;;;;;;30.03;nan;97803.91;4939390;28;20099;-65
2023/08/19 00:22:40;;;;;;;33.90;17.75;;;;;;;30.00;nan;97806.53;4943849;28;20056;-65
2023/08/19 00:25:10;;;;;;;34.72;16.98;;;;;;;30.01;nan;97811.63;4929344;28;20055;-64
2023/08/19 00:27:39;;;;;;;40.28;17.75;;;;;;;29.99;nan;97818.59;4941603;28;20050;-65
2023/08/19 00:30:08;;;;;;;39.20;17.23;;;;;;;29.99;nan;97813.91;4943449;28;20051;-65
2023/08/19 00:32:38;;;;;;;33.45;15.73;;;;;;;29.98;nan;97811.53;4930250;28;20046;-64
2023/08/19 00:35:07;;;;;;;38.83;18.02;;;;;;;30.00;nan;97817.44;4929123;28;20490;-65
2023/08/19 00:37:37;;;;;;;37.55;16.00;;;;;;;30.01;nan;97819.03;4940133;28;20070;-65
2023/08/19 00:40:11;;;;;;;36.95;15.35;;;;;;;30.02;nan;97820.63;4931172;28;20055;-64
2023/08/19 00:42:41;;;;;;;34.67;15.88;;;;;;;30.00;nan;97820.97;4935083;28;20151;-65
2023/08/19 00:45:11;;;;;;;38.85;17.88;;;;;;;30.01;nan;97828.03;4922197;28;20051;-65
2023/08/19 00:47:42;;;;;;;38.00;17.48;;;;;;;29.99;nan;97829.50;4929528;28;20043;-65
2023/08/19 00:50:12;;;;;;;38.22;17.63;;;;;;;30.03;nan;97830.41;4911263;28;20354;-65
2023/08/19 00:52:43;;;;;;;42.72;18.55;;;;;;;30.02;nan;97826.88;4913729;29;20051;-65
2023/08/19 00:55:12;;;;;;;46.33;17.38;;;;;;;30.07;nan;97832.13;4909958;28;20050;-64
2023/08/19 00:57:43;;;;;;;33.45;17.55;;;;;;;30.07;nan;97821.19;4965406;28;20138;-66
2023/08/19 01:00:13;;;;;;;42.58;18.80;;;;;;;30.14;nan;97837.81;4939655;28;20055;-65
2023/08/19 01:02:43;;;;;;;36.85;17.60;;;;;;;30.16;nan;97837.47;4961820;28;20050;-65
2023/08/19 01:05:12;;;;;;;36.33;18.80;;;;;;;30.19;nan;97847.72;4929234;28;21350;-65
2023/08/19 01:08:02;;;;;;;37.72;17.75;;;;;;;30.23;nan;97841.22;4945121;28;20130;-64
2023/08/19 01:10:53;;;;;;;42.70;16.33;;;;;;;30.29;nan;97841.81;4929878;29;20423;-65
2023/08/19 01:13:29;;;;;;;35.60;17.27;;;;;;;30.32;nan;97836.44;4957159;28;20042;-64
2023/08/19 01:16:20;;;;;;;47.05;19.77;;;;;;;30.37;nan;97843.63;4943972;29;20117;-65
2023/08/19 01:18:50;;;;;;;44.90;18.83;;;;;;;30.37;nan;97840.09;4941462;29;20055;-65
2023/08/19 01:21:22;;;;;;;35.75;17.40;;;;;;;30.44;nan;97852.06;4921042;28;20495;-65
2023/08/19 01:23:58;;;;;;;39.45;17.73;;;;;;;30.50;nan;97863.56;4933799;28;20101;-65
2023/08/19 01:26:28;;;;;;;37.45;18.20;;;;;;;30.52;nan;97869.50;4939073;28;20378;-65
2023/08/19 01:28:57;;;;;;;44.95;19.83;;;;;;;30.57;nan;97866.53;4965489;28;20053;-65
2023/08/19 01:31:26;;;;;;;42.80;19.33;;;;;;;30.61;nan;97861.97;4953476;28;20163;-65
2023/08/19 01:33:55;;;;;;;46.60;20.02;;;;;;;30.67;nan;97857.88;4911861;29;20051;-65
2023/08/19 01:36:38;;;;;;;41.28;19.30;;;;;;;30.74;nan;97858.88;4910691;29;20055;-64
2023/08/19 01:39:10;;;;;;;46.83;20.80;;;;;;;30.77;nan;97862.84;4943631;28;20054;-65
2023/08/19 01:41:41;;;;;;;38.45;17.90;;;;;;;30.88;nan;97876.84;4945879;28;20087;-65
2023/08/19 01:44:11;;;;;;;51.90;20.23;;;;;;;30.91;nan;97873.41;4944700;28;20467;-65
2023/08/19 01:46:40;;;;;;;43.45;19.85;;;;;;;31.00;nan;97885.03;4941513;28;20062;-65
2023/08/19 01:49:09;;;;;;;47.58;18.55;;;;;;;31.02;nan;97883.59;4929349;28;20142;-65
2023/08/19 01:51:39;;;;;;;39.97;17.20;;;;;;;31.13;nan;97884.69;4957688;28;20062;-65
2023/08/19 01:54:08;;;;;;;44.15;17.90;;;;;;;31.25;nan;97891.28;4946608;28;20066;-65
2023/08/19 01:56:37;;;;;;;46.45;16.52;;;;;;;31.35;nan;97888.81;4929061;28;20063;-65
2023/08/19 01:59:07;;;;;;;38.20;15.73;;;;;;;31.42;nan;97889.03;4913307;28;20055;-65
2023/08/19 02:01:36;;;;;;;35.50;15.30;;;;;;;31.46;nan;97881.72;4946741;28;20084;-65
2023/08/19 02:04:05;;;;;;;53.55;19.30;;;;;;;31.56;nan;97892.16;4935666;28;20056;-65
2023/08/19 02:06:35;;;;;;;36.03;15.30;;;;;;;31.66;nan;97893.63;4932380;28;20167;-65
2023/08/19 02:09:04;;;;;;;41.60;17.25;;;;;;;31.69;nan;97889.41;4943550;28;20105;-65
2023/08/19 02:11:33;;;;;;;35.72;15.30;;;;;;;31.64;nan;97895.91;4910577;29;20050;-65
2023/08/19 02:14:03;;;;;;;51.83;16.23;;;;;;;31.83;nan;97904.25;4935487;28;20048;-65
2023/08/19 02:16:33;;;;;;;37.50;15.75;;;;;;;31.92;nan;97882.97;4928827;28;20047;-65
2023/08/19 02:19:04;;;;;;;44.60;17.30;;;;;;;32.08;nan;97900.22;4905181;28;20047;-66
2023/08/19 02:21:33;;;;;;;40.17;15.80;;;;;;;32.07;nan;97895.09;4948124;28;20059;-65
2023/08/19 02:24:03;;;;;;;49.00;15.93;;;;;;;32.30;nan;97900.78;4959075;28;20051;-65
2023/08/19 02:26:32;;;;;;;44.42;14.32;;;;;;;32.53;nan;97912.69;4928389;29;20498;-65
2023/08/19 02:29:01;;;;;;;39.70;15.73;;;;;;;32.63;nan;97911.38;4930212;28;20047;-68
2023/08/19 02:31:30;;;;;;;38.67;16.00;;;;;;;32.67;nan;97912.25;4924551;28;20063;-65
2023/08/19 02:34:00;;;;;;;42.33;15.52;;;;;;;32.81;nan;97905.16;4932097;28;20062;-65
2023/08/19 02:36:31;;;;;;;34.35;14.13;;;;;;;33.03;nan;97900.16;4915620;29;20051;-65
2023/08/19 02:39:01;;;;;;;48.30;16.42;;;;;;;33.05;nan;97908.81;4931822;29;20062;-65
2023/08/19 02:41:30;;;;;;;48.15;14.50;;;;;;;33.07;nan;97906.50;4933965;28;20051;-65
2023/08/19 02:44:00;;;;;;;40.47;15.23;;;;;;;33.25;nan;97905.75;4939850;28;20137;-65
2023/08/19 02:46:30;;;;;;;38.17;14.70;;;;;;;33.21;nan;97909.59;4946645;28;20146;-65
2023/08/19 02:49:00;;;;;;;45.85;15.13;;;;;;;33.30;nan;97919.22;4932492;29;20058;-65
2023/08/19 02:51:30;;;;;;;42.50;15.27;;;;;;;33.27;nan;97913.66;4918325;28;20499;-65
2023/08/19 02:54:07;;;;;;;41.15;15.68;;;;;;;33.31;nan;97920.00;4933802;28;20054;-64
2023/08/19 02:56:36;;;;;;;44.88;16.58;;;;;;;33.37;nan;97915.84;4931773;29;20090;-65
2023/08/19 02:59:06;;;;;;;38.63;14.00;;;;;;;33.37;nan;97913.09;4932201;28;20079;-65
2023/08/19 03:01:35;;;;;;;38.92;15.15;;;;;;;33.55;nan;97914.22;4931109;29;20048;-65
2023/08/19 03:04:04;;;;;;;44.80;17.58;;;;;;;33.62;nan;97919.06;4930870;28;20055;-65
2023/08/19 03:06:34;;;;;;;37.72;15.05;;;;;;;33.69;nan;97919.22;4924270;29;20051;-65
2023/08/19 03:09:03;;;;;;;39.85;14.77;;;;;;;33.80;nan;97925.72;4927364;28;20145;-65
2023/08/19 03:11:32;;;;;;;41.38;15.70;;;;;;;33.68;nan;97931.38;4939263;28;20062;-66
2023/08/19 03:14:02;;;;;;;36.78;15.45;;;;;;;33.66;nan;97928.19;4928127;29;20051;-65
2023/08/19 03:16:31;;;;;;;45.45;15.77;;;;;;;33.77;nan;97929.97;4947849;28;20054;-65
2023/08/19 03:19:01;;;;;;;38.50;16.67;;;;;;;33.90;nan;97938.09;4922267;29;20166;-65
2023/08/19 03:21:31;;;;;;;42.28;16.52;;;;;;;33.76;nan;97936.66;4928830;28;20589;-65
2023/08/19 03:24:00;;;;;;;42.65;16.77;;;;;;;33.88;nan;97940.38;4938700;28;20065;-65
2023/08/19 03:26:29;;;;;;;45.35;16.48;;;;;;;33.98;nan;97945.28;4927540;28;20134;-65
2023/08/19 03:29:07;;;;;;;51.45;17.48;;;;;;;34.17;nan;97945.25;4923597;28;20105;-65
2023/08/19 03:31:36;;;;;;;40.67;17.35;;;;;;;34.14;nan;97949.53;4932817;28;20073;-65
2023/08/19 03:34:06;;;;;;;35.95;13.30;;;;;;;34.09;nan;97954.53;4926778;28;20051;-65
2023/08/19 03:36:35;;;;;;;40.35;12.30;;;;;;;34.06;nan;97950.56;4931922;29;20066;-66
2023/08/19 03:39:04;;;;;;;34.15;12.75;;;;;;;34.09;nan;97955.31;4929363;28;20129;-65
2023/08/19 03:41:34;;;;;;;34.72;13.05;;;;;;;34.20;nan;97959.09;4915709;29;20047;-65
2023/08/19 03:44:03;;;;;;;39.25;15.00;;;;;;;34.19;nan;97959.44;4924839;29;20072;-65
2023/08/19 03:46:32;;;;;;;43.60;12.60;;;;;;;34.08;nan;97963.94;4912514;29;20056;-66
2023/08/19 03:49:02;;;;;;;41.75;13.50;;;;;;;34.19;nan;97970.44;4914735;29;20731;-65
2023/08/19 03:51:34;;;;;;;35.58;14.70;;;;;;;34.30;nan;97971.41;4926469;28;20730;-66
2023/08/19 03:54:03;;;;;;;41.78;12.98;;;;;;;34.21;nan;97981.88;4955532;28;20375;-65
2023/08/19 03:56:33;;;;;;;42.40;14.02;;;;;;;34.31;nan;97981.25;4928154;29;20052;-65
2023/08/19 03:59:02;;;;;;;43.85;14.32;;;;;;;34.26;nan;97978.81;4943818;28;20059;-66
2023/08/19 04:01:32;;;;;;;36.65;14.65;;;;;;;34.41;nan;97986.16;4917572;29;20047;-66
2023/08/19 04:04:02;;;;;;;48.25;13.63;;;;;;;34.65;nan;97990.50;4934597;28;20058;-65
2023/08/19 04:06:32;;;;;;;41.90;14.82;;;;;;;34.73;nan;98003.25;4947005;28;20044;-66
2023/08/19 04:09:01;;;;;;;40.42;14.25;;;;;;;34.65;nan;97998.75;4946452;28;20129;-66
2023/08/19 04:11:30;;;;;;;38.80;12.18;;;;;;;34.76;nan;97997.00;4952369;28;20066;-66
2023/08/19 04:14:00;;;;;;;47.42;13.48;;;;;;;34.78;nan;97993.88;4957995;28;20059;-66
2023/08/19 04:16:30;;;;;;;53.95;15.63;;;;;;;34.65;nan;97999.53;4951934;28;20043;-66
2023/08/19 04:18:59;;;;;;;35.10;12.10;;;;;;;34.79;nan;98004.50;4930368;29;20058;-66
2023/08/19 04:21:29;;;;;;;38.22;13.70;;;;;;;34.88;nan;98013.31;4946535;29;20115;-66
2023/08/19 04:23:58;;;;;;;37.78;12.93;;;;;;;34.82;nan;98003.00;4957568;28;20059;-67
2023/08/19 04:26:28;;;;;;;37.40;11.95;;;;;;;34.68;nan;98009.06;4942879;28;20497;-66
2023/08/19 04:28:57;;;;;;;55.00;14.20;;;;;;;34.54;nan;97998.56;4926862;29;20065;-66
2023/08/19 04:31:31;;;;;;;43.22;13.52;;;;;;;34.28;nan;98001.25;4922736;28;20388;-66
2023/08/19 04:34:04;;;;;;;42.42;12.68;;;;;;;34.36;nan;98007.66;4902227;28;20079;-66
2023/08/19 04:36:34;;;;;;;31.63;12.43;;;;;;;34.42;nan;98000.72;4926231;29;20139;-66
2023/08/19 04:39:07;;;;;;;37.13;12.75;;;;;;;34.38;nan;98005.34;4928358;28;20497;-66
2023/08/19 04:41:36;;;;;;;42.42;14.52;;;;;;;34.49;nan;98007.13;4931418;28;20157;-66
2023/08/19 04:44:07;;;;;;;39.22;12.82;;;;;;;34.69;nan;98000.44;4925452;29;20039;-68
2023/08/19 04:46:36;;;;;;;31.95;12.40;;;;;;;34.74;nan;98007.59;4940950;28;20058;-65
2023/08/19 04:49:05;;;;;;;39.13;12.38;;;;;;;34.79;nan;98012.00;4931196;28;20059;-65
2023/08/19 04:51:36;;;;;;;34.05;12.35;;;;;;;34.74;nan;98006.78;4930340;28;20047;-65
2023/08/19 04:54:06;;;;;;;41.65;14.45;;;;;;;34.71;nan;97998.09;4930530;28;20055;-65
2023/08/19 04:56:35;;;;;;;43.03;13.98;;;;;;;34.87;nan;98008.19;4929005;29;20047;-64
2023/08/19 04:59:05;;;;;;;36.38;14.40;;;;;;;35.20;nan;98008.31;4910893;28;20138;-64
2023/08/19 05:01:34;;;;;;;41.88;14.05;;;;;;;35.25;nan;98004.44;4941855;28;20051;-63
2023/08/19 05:04:04;;;;;;;55.15;15.38;;;;;;;35.17;nan;98011.03;4933901;28;20099;-64
2023/08/19 05:06:34;;;;;;;30.52;14.02;;;;;;;35.22;nan;98006.00;4921702;29;20162;-65
2023/08/19 05:09:03;;;;;;;39.63;14.73;;;;;;;35.30;nan;98002.19;4910823;28;20054;-65
2023/08/19 05:11:33;;;;;;;38.85;14.98;;;;;;;35.62;nan;98002.63;4933162;28;20054;-64
2023/08/19 05:14:09;;;;;;;42.50;14.68;;;;;;;36.13;nan;98013.91;4945140;28;20066;-64
2023/08/19 05:16:38;;;;;;;31.00;13.13;;;;;;;36.38;nan;98023.22;4923130;29;20058;-64
2023/08/19 05:19:18;;;;;;;38.17;12.32;;;;;;;36.58;nan;98011.97;4895179;29;20092;-64
2023/08/19 05:21:48;;;;;;;38.83;13.20;;;;;;;36.47;nan;98015.41;4933681;28;20055;-68
2023/08/19 05:24:21;;;;;;;36.42;13.65;;;;;;;36.53;nan;98012.31;4942721;28;20113;-67
2023/08/19 05:26:50;;;;;;;31.13;12.43;;;;;;;36.24;nan;98012.06;4940411;29;20802;-66
2023/08/19 05:29:19;;;;;;;37.55;13.40;;;;;;;35.88;nan;98004.53;4939817;28;20062;-64
2023/08/19 05:31:48;;;;;;;43.28;19.17;;;;;;;35.47;nan;98004.38;4930411;28;20081;-66
2023/08/19 05:34:18;;;;;;;39.72;17.48;;;;;;;35.58;nan;98002.53;4942875;28;20055;-65
2023/08/19 05:36:47;;;;;;;38.10;16.38;;;;;;;35.76;nan;97993.75;4921285;28;20375;-65
2023/08/19 05:39:16;;;;;;;38.25;15.55;;;;;;;35.58;nan;97996.28;4946921;28;20070;-65
2023/08/19 05:41:46;;;;;;;34.88;15.48;;;;;;;35.07;nan;97999.44;4934147;28;20046;-66
2023/08/19 05:44:15;;;;;;;29.33;13.15;;;;;;;34.93;nan;98006.69;4936252;28;20042;-66
2023/08/19 05:46:45;;;;;;;31.92;15.27;;;;;;;34.83;nan;97997.09;4926433;29;20053;-66
2023/08/19 05:49:14;;;;;;;26.48;15.50;;;;;;;34.45;nan;97995.28;4927554;28;20067;-66
2023/08/19 05:51:43;;;;;;;36.53;15.98;;;;;;;34.31;nan;97989.50;4925897;29;20496;-66
2023/08/19 05:54:13;;;;;;;32.63;16.83;;;;;;;34.03;nan;97981.53;4929337;29;20649;-65
2023/08/19 05:56:42;;;;;;;27.80;15.00;;;;;;;33.87;nan;97982.75;4962687;28;20047;-65
2023/08/19 05:59:11;;;;;;;30.95;13.18;;;;;;;33.76;nan;97985.31;4969342;28;20050;-65
2023/08/19 06:01:40;;;;;;;32.33;15.27;;;;;;;33.64;nan;97977.16;4927151;28;20143;-66
2023/08/19 06:04:10;;;;;;;40.65;16.50;;;;;;;33.18;nan;97982.47;4942863;28;20574;-66
2023/08/19 06:06:39;;;;;;;39.08;17.88;;;;;;;33.27;nan;97968.56;4951973;28;20102;-66
2023/08/19 06:09:09;;;;;;;35.63;16.38;;;;;;;33.27;nan;97960.31;4943475;28;20055;-66
2023/08/19 06:11:48;;;;;;;29.90;16.85;;;;;;;33.68;nan;97965.13;4947107;28;20059;-66
2023/08/19 06:14:19;;;;;;;36.47;17.20;;;;;;;33.88;nan;97984.34;4931453;28;20059;-65
2023/08/19 06:16:48;;;;;;;29.85;15.45;;;;;;;34.27;nan;97997.69;4915579;29;20698;-66
2023/08/19 06:19:17;;;;;;;27.05;15.27;;;;;;;34.64;nan;97988.91;4931818;28;20061;-65
2023/08/19 06:21:47;;;;;;;25.50;14.32;;;;;;;34.95;nan;97985.91;4965269;28;20395;-65
2023/08/19 06:24:16;;;;;;;21.58;13.95;;;;;;;35.19;nan;97979.19;4943389;28;20058;-64
2023/08/19 06:26:46;;;;;;;26.08;15.07;;;;;;;35.36;nan;97978.63;4941120;28;20122;-65
2023/08/19 06:29:15;;;;;;;25.27;13.35;;;;;;;35.56;nan;97988.38;4913344;29;20051;-65
2023/08/19 06:31:45;;;;;;;26.25;15.57;;;;;;;35.82;nan;97979.25;4912225;28;20130;-65
2023/08/19 06:34:14;;;;;;;25.98;14.50;;;;;;;35.86;nan;97971.03;4963900;28;20082;-65
2023/08/19 06:36:48;;;;;;;25.95;15.75;;;;;;;35.57;nan;97967.91;4957309;28;20047;-66
2023/08/19 06:39:28;;;;;;;23.10;15.95;;;;;;;35.18;nan;97963.84;4945295;28;20102;-63
2023/08/19 06:42:05;;;;;;;28.55;16.30;;;;;;;34.92;nan;97970.13;4937676;28;20058;-64
2023/08/19 06:44:38;;;;;;;28.70;16.10;;;;;;;34.80;nan;97975.03;4947168;28;20572;-63
2023/08/19 06:47:10;;;;;;;31.73;17.35;;;;;;;34.91;nan;97976.00;4945739;28;20051;-64
2023/08/19 06:49:39;;;;;;;36.97;17.40;;;;;;;35.01;nan;97980.84;4947933;28;20075;-62
2023/08/19 06:52:09;;;;;;;27.17;15.52;;;;;;;35.03;nan;97978.53;4945930;28;20109;-63
2023/08/19 06:54:40;;;;;;;27.52;16.23;;;;;;;34.90;nan;97966.16;4917665;28;20208;-63
2023/08/19 06:57:21;;;;;;;37.08;17.40;;;;;;;34.79;nan;97954.97;4944684;28;20130;-62
2023/08/19 06:59:56;;;;;;;28.63;17.63;;;;;;;34.99;nan;97959.22;4943403;28;20051;-63
2023/08/19 07:02:28;;;;;;;29.30;18.35;;;;;;;35.24;nan;97953.28;4944656;28;20055;-63
2023/08/19 07:04:59;;;;;;;29.00;18.23;;;;;;;35.31;nan;97956.97;4884500;29;20059;-62
2023/08/19 07:07:30;;;;;;;34.25;17.95;;;;;;;35.30;nan;97960.88;4925439;29;20294;-63
2023/08/19 07:10:00;;;;;;;33.50;16.98;;;;;;;35.00;nan;97938.81;4913566;29;20052;-64
2023/08/19 07:12:31;;;;;;;35.58;20.33;;;;;;;34.77;nan;97932.56;4907969;29;20066;-64
2023/08/19 07:15:01;;;;;;;31.38;18.38;;;;;;;34.88;nan;97924.44;4907034;29;20062;-64
2023/08/19 07:17:30;;;;;;;38.00;18.83;;;;;;;34.76;nan;97932.91;4916821;29;20055;-67
2023/08/19 07:20:01;;;;;;;32.58;19.65;;;;;;;35.06;nan;97926.28;4907592;29;20048;-66
2023/08/19 07:22:36;;;;;;;33.55;19.58;;;;;;;35.13;nan;97942.91;4906790;29;20051;-65
2023/08/19 07:25:07;;;;;;;37.72;20.40;;;;;;;34.80;nan;97936.50;4922676;29;20365;-63
2023/08/19 07:27:37;;;;;;;34.92;20.33;;;;;;;34.70;nan;97929.69;4912338;29;20051;-64
2023/08/19 07:30:07;;;;;;;46.08;20.30;;;;;;;34.60;nan;97925.59;4918155;29;20047;-64
2023/08/19 07:32:37;;;;;;;33.13;19.90;;;;;;;34.50;nan;97914.41;4910933;29;20441;-65
2023/08/19 07:35:07;;;;;;;35.05;18.92;;;;;;;34.60;nan;97916.53;4897530;29;20067;-66
2023/08/19 07:37:37;;;;;;;37.42;19.90;;;;;;;34.36;nan;97919.66;4929702;29;20044;-68
2023/08/19 07:40:09;;;;;;;37.03;18.33;;;;;;;34.28;nan;97918.75;4915525;29;20551;-67
2023/08/19 07:42:39;;;;;;;36.38;18.75;;;;;;;34.07;nan;97921.13;4895752;29;20091;-67
2023/08/19 07:45:10;;;;;;;31.35;17.15;;;;;;;33.91;nan;97904.72;4937104;28;20493;-66
2023/08/19 07:47:39;;;;;;;32.35;18.13;;;;;;;33.79;nan;97904.91;4908101;29;20082;-66
2023/08/19 07:50:09;;;;;;;33.38;17.10;;;;;;;33.73;nan;97901.66;4921895;29;20138;-69
2023/08/19 07:52:38;;;;;;;34.88;17.65;;;;;;;33.69;nan;97898.03;4884259;29;20075;-66
2023/08/19 07:55:08;;;;;;;35.80;18.27;;;;;;;33.60;nan;97891.94;4921743;29;20056;-66
2023/08/19 07:57:38;;;;;;;33.90;14.32;;;;;;;33.73;nan;97884.38;4907236;29;20134;-67
2023/08/19 08:00:09;;;;;;;26.35;12.85;;;;;;;33.81;nan;97888.84;4905720;29;20044;-67
2023/08/19 08:02:41;;;;;;;24.05;11.75;;;;;;;33.90;nan;97878.44;4923746;28;20141;-66
2023/08/19 08:05:11;;;;;;;19.25;10.95;;;;;;;33.99;nan;97878.19;4928229;29;20047;-66
2023/08/19 08:07:40;;;;;;;39.80;13.93;;;;;;;34.06;nan;97887.34;4923693;29;20054;-70
2023/08/19 08:10:10;;;;;;;29.98;12.32;;;;;;;34.10;nan;97896.44;4925952;28;20054;-66
2023/08/19 08:12:39;;;;;;;34.53;11.95;;;;;;;33.99;nan;97902.91;4926086;28;20048;-67
2023/08/19 08:15:09;;;;;;;29.52;13.07;;;;;;;34.01;nan;97906.88;4939730;28;20078;-69
2023/08/19 08:17:39;;;;;;;25.60;12.85;;;;;;;34.12;nan;97893.34;4935705;28;20052;-66
2023/08/19 08:20:09;;;;;;;25.15;12.77;;;;;;;34.11;nan;97883.50;4925537;28;20055;-68
2023/08/19 08:22:38;;;;;;;39.70;18.00;;;;;;;33.95;nan;97904.78;4937457;28;20062;-68
2023/08/19 08:25:12;;;;;;;36.25;16.77;;;;;;;33.67;nan;97900.38;4940758;28;20276;-67
2023/08/19 08:27:42;;;;;;;37.85;16.15;;;;;;;33.22;nan;97889.22;4938249;28;20831;-67
2023/08/19 08:30:12;;;;;;;36.08;15.75;;;;;;;33.03;nan;97891.91;4935689;28;20106;-67
2023/08/19 08:32:41;;;;;;;23.00;12.35;;;;;;;32.84;nan;97893.47;4910025;29;20153;-67
2023/08/19 08:35:11;;;;;;;28.85;12.27;;;;;;;32.80;nan;97891.78;4934414;28;20451;-68
2023/08/19 08:37:40;;;;;;;25.25;12.60;;;;;;;32.67;nan;97891.13;4943415;28;20057;-67
2023/08/19 08:40:10;;;;;;;21.92;11.70;;;;;;;32.45;nan;97887.06;4941554;28;20114;-67
2023/08/19 08:42:40;;;;;;;27.45;12.30;;;;;;;32.31;nan;97889.44;4936062;28;20375;-67
2023/08/19 08:45:20;;;;;;;24.75;10.65;;;;;;;31.78;nan;97885.31;4937113;28;20597;-66
2023/08/19 08:47:52;;;;;;;21.00;10.45;;;;;;;31.46;nan;97876.25;4943157;29;20054;-67
2023/08/19 08:50:22;;;;;;;25.00;10.43;;;;;;;31.11;nan;97856.84;4940917;28;20115;-67
2023/08/19 08:52:51;;;;;;;26.90;11.45;;;;;;;31.33;nan;97860.22;4921776;28;20062;-70
2023/08/19 08:55:21;;;;;;;20.30;11.70;;;;;;;31.19;nan;97866.09;4939870;28;20043;-68
2023/08/19 08:57:50;;;;;;;32.42;13.35;;;;;;;31.15;nan;97856.97;4926209;29;20593;-68
2023/08/19 09:00:20;;;;;;;30.10;13.48;;;;;;;31.11;nan;97840.44;4905517;28;20051;-72
2023/08/19 09:02:53;;;;;;;29.52;13.80;;;;;;;31.02;nan;97844.50;4930221;28;20492;-68
2023/08/19 09:05:25;;;;;;;31.00;13.00;;;;;;;30.80;nan;97859.44;4928065;28;20703;-67
2023/08/19 09:07:57;;;;;;;18.05;10.60;;;;;;;30.20;nan;97849.31;4931074;28;20161;-65
2023/08/19 09:10:29;;;;;;;11.17;8.07;;;;;;;30.21;nan;97834.53;4939517;28;20738;-68
2023/08/19 09:13:00;;;;;;;12.43;6.82;;;;;;;29.60;nan;97817.25;4909414;28;20054;-66
2023/08/19 09:15:31;;;;;;;10.38;6.53;;;;;;;29.45;nan;97826.88;4936953;28;20123;-66
2023/08/19 09:18:06;;;;;;;13.30;6.82;;;;;;;29.26;nan;97851.09;4934872;28;20828;-68
2023/08/19 09:20:37;;;;;;;11.85;8.43;;;;;;;29.09;nan;97876.59;4576601;28;9999850;-67
2023/08/19 09:23:08;;;;;;;12.73;6.88;;;;;;;29.01;nan;97886.44;4922439;28;20051;-68
2023/08/19 09:25:40;;;;;;;11.48;6.63;;;;;;;28.78;nan;97885.16;4931835;28;20091;-68
2023/08/19 09:28:18;;;;;;;10.50;6.80;;;;;;;28.74;nan;97850.72;4935037;28;20134;-68
2023/08/19 09:30:48;;;;;;;9.05;5.90;;;;;;;28.78;nan;97835.28;4915044;29;20059;-67
2023/08/19 09:33:21;;;;;;;7.43;5.18;;;;;;;28.78;nan;97840.75;4921726;28;20122;-68
2023/08/19 09:35:58;;;;;;;10.25;5.53;;;;;;;28.65;nan;97869.81;4910415;29;20788;-67
2023/08/19 09:38:28;;;;;;;8.32;5.60;;;;;;;28.52;nan;97865.41;4936433;28;20055;-69
2023/08/19 09:41:03;;;;;;;8.88;5.55;;;;;;;28.29;nan;97854.00;4911521;29;20048;-68
2023/08/19 09:43:33;;;;;;;11.25;6.90;;;;;;;28.49;nan;97839.63;4936612;28;20085;-68
2023/08/19 09:46:03;;;;;;;8.48;5.45;;;;;;;28.40;nan;97852.50;4921836;28;20051;-68
2023/08/19 09:48:33;;;;;;;7.70;6.43;;;;;;;28.46;nan;97851.19;4917269;29;20481;-67
2023/08/19 09:51:02;;;;;;;11.20;6.13;;;;;;;28.55;nan;97865.53;4929664;28;20089;-69
2023/08/19 09:53:33;;;;;;;9.48;6.68;;;;;;;28.49;nan;97861.44;4928091;28;20058;-69
2023/08/19 09:56:03;;;;;;;11.95;6.90;;;;;;;28.49;nan;97861.44;4930709;28;20055;-68
2023/08/19 09:58:32;;;;;;;10.15;6.10;;;;;;;28.54;nan;97858.53;4912917;29;20055;-69
2023/08/19 10:01:02;;;;;;;10.73;7.68;;;;;;;28.60;nan;97850.94;4915291;28;20059;-69
2023/08/19 10:03:31;;;;;;;9.60;6.72;;;;;;;28.68;nan;97846.56;4912320;28;20113;-69
2023/08/19 10:06:03;;;;;;;8.50;6.70;;;;;;;28.79;nan;97854.06;4934225;28;20141;-70
2023/08/19 10:08:35;;;;;;;10.65;7.25;;;;;;;28.99;nan;97858.69;4932103;28;20406;-74
2023/08/19 10:11:06;;;;;;;9.00;7.50;;;;;;;29.05;nan;97842.94;4908199;29;20043;-74
2023/08/19 10:13:37;;;;;;;13.55;8.70;;;;;;;29.08;nan;97845.00;4931840;28;20338;-73
2023/08/19 10:16:07;;;;;;;17.27;8.75;;;;;;;29.11;nan;97838.09;4905993;28;20047;-73
2023/08/19 10:18:40;;;;;;;13.30;8.35;;;;;;;29.01;nan;97833.84;4926305;28;20539;-72
2023/08/19 10:21:13;;;;;;;12.45;8.05;;;;;;;29.03;nan;97835.09;4930987;28;20070;-70
2023/08/19 10:23:46;;;;;;;10.55;8.18;;;;;;;29.27;nan;97834.41;4930656;28;20420;-71
2023/08/19 10:26:17;;;;;;;13.82;8.13;;;;;;;29.38;nan;97830.16;4915855;28;20051;-72
2023/08/19 10:29:06;;;;;;;16.50;8.43;;;;;;;29.41;nan;97834.94;4923639;29;20047;-75
2023/08/19 10:31:36;;;;;;;10.82;7.35;;;;;;;29.45;nan;97838.59;4930378;28;20047;-75
2023/08/19 10:34:31;;;;;;;12.43;8.38;;;;;;;29.67;nan;97829.19;4942035;28;20680;-76
2023/08/19 10:37:11;;;;;;;12.93;7.43;;;;;;;29.77;nan;97827.97;4922334;28;20573;-75
2023/08/19 10:39:40;;;;;;;12.60;9.20;;;;;;;29.94;nan;97827.00;4931611;28;20055;-73
2023/08/19 10:42:13;;;;;;;10.38;8.60;;;;;;;29.98;nan;97827.91;4911398;28;20235;-74
2023/08/19 10:44:43;;;;;;;12.13;8.15;;;;;;;29.98;nan;97830.63;4909271;28;20047;-72
2023/08/19 10:47:13;;;;;;;15.10;8.65;;;;;;;30.00;nan;97839.31;4917252;28;20130;-72
2023/08/19 10:49:46;;;;;;;14.55;8.15;;;;;;;30.08;nan;97838.38;4924912;28;20476;-74
2023/08/19 10:52:22;;;;;;;12.65;8.80;;;;;;;30.18;nan;97848.88;4917755;28;20058;-73
2023/08/19 10:54:51;;;;;;;11.68;8.10;;;;;;;30.22;nan;97838.84;4928225;28;20070;-74
2023/08/19 10:57:22;;;;;;;13.70;8.38;;;;;;;30.27;nan;97839.41;4915007;28;20118;-72
2023/08/19 10:59:58;;;;;;;14.68;9.27;;;;;;;30.39;nan;97837.81;4945909;28;20051;-69
2023/08/19 11:02:29;;;;;;;14.95;11.02;;;;;;;30.47;nan;97828.72;4928782;28;20106;-71
2023/08/19 11:05:01;;;;;;;11.82;8.68;;;;;;;30.48;nan;97830.31;4926486;28;20129;-69
2023/08/19 11:07:31;;;;;;;18.52;10.63;;;;;;;30.53;nan;97830.09;4938859;28;20078;-68
2023/08/19 11:10:00;;;;;;;17.30;10.30;;;;;;;30.49;nan;97834.66;4919938;28;20399;-67
2023/08/19 11:12:30;;;;;;;16.90;9.70;;;;;;;30.45;nan;97820.09;4918464;29;20130;-67
2023/08/19 11:15:00;;;;;;;11.93;9.43;;;;;;;30.54;nan;97834.41;4928813;28;20054;-69
2023/08/19 11:17:31;;;;;;;19.35;11.00;;;;;;;30.52;nan;97825.75;4917322;29;20075;-68
2023/08/19 11:20:10;;;;;;;18.95;10.57;;;;;;;30.55;nan;97820.41;4941884;28;20051;-73
2023/08/19 11:22:47;;;;;;;14.27;11.05;;;;;;;30.56;nan;97819.25;4945304;28;20051;-71
2023/08/19 11:25:17;;;;;;;15.57;9.30;;;;;;;30.59;nan;97815.03;4952579;28;20047;-69
2023/08/19 11:27:46;;;;;;;15.15;10.20;;;;;;;30.63;nan;97814.00;4916551;29;20059;-71
2023/08/19 11:30:20;;;;;;;18.40;10.68;;;;;;;30.67;nan;97814.13;4578976;29;9999919;-70
2023/08/19 11:32:50;;;;;;;15.60;11.07;;;;;;;30.65;nan;97821.88;4913282;28;20051;-72
2023/08/19 11:35:20;;;;;;;19.20;8.95;;;;;;;30.39;nan;97832.34;4920297;28;20062;-74
2023/08/19 11:37:49;;;;;;;25.02;8.65;;;;;;;30.31;nan;97821.22;4948586;28;20062;-69
2023/08/19 11:40:18;;;;;;;18.58;8.98;;;;;;;30.17;nan;97823.50;4950790;28;20054;-72
2023/08/19 11:43:09;;;;;;;17.15;8.18;;;;;;;30.12;nan;97804.59;4566221;29;9999737;-70
2023/08/19 11:45:40;;;;;;;25.00;7.70;;;;;;;30.12;nan;97806.53;4924190;29;20163;-68
2023/08/19 11:48:16;;;;;;;17.92;7.13;;;;;;;30.19;nan;97787.63;4922668;28;20166;-66
2023/08/19 11:50:49;;;;;;;21.25;7.22;;;;;;;30.22;nan;97781.47;4949048;28;20043;-71